NCAR-RAP Real-Time Weather Data

Output produced by METARs form (27 July 2017  18:42 UTC)
found at http://weather.rap.ucar.edu/surface/
 
Conditions at: KGIF observed 27 July 2017  18:28 UTC
Temperature: 33.9°C (93°F)
Dewpoint: 21.1°C (70°F) [RH = 47%]
Pressure (altimeter): 30.01 inches Hg (1016.3 mb)
Winds: calm
Visibility: 10 or more miles (16+ km)
Ceiling: at least 12,000 feet AGL
Clouds: sky clear below 12,000 feet AGL
Present Weather: VCTS  (thunderstorm in vicinity)
KGIF 271828Z AUTO 00000KT 10SM VCTS CLR 34/21 A3001 RMK AO2 LTG DSNT SE-W T03390211

Conditions at: KGIF observed 27 July 2017  17:53 UTC
Temperature: 32.2°C (90°F)
Dewpoint: 22.2°C (72°F) [RH = 56%]
Pressure (altimeter): 30.02 inches Hg (1016.7 mb)
[Sea-level pressure: 1016.2 mb]
Winds: from the SW (220 degrees) at 3 MPH (3 knots; 1.6 m/s)
Visibility: 10 or more miles (16+ km)
Ceiling: 8500 feet AGL
Clouds: few clouds at 3700 feet AGL
scattered clouds at 6000 feet AGL
broken clouds at 8500 feet AGL
Present Weather: automated observation with no human augmentation;
there may or may not be significant weather present at this time
KGIF 271753Z AUTO 22003KT 10SM FEW037 SCT060 BKN085 32/22 A3002 RMK AO2 LTG DSNT SE AND SW AND NW SLP162 T03220222 10339 20256 58012

Conditions at: KGIF observed 27 July 2017  16:53 UTC
Temperature: 31.7°C (89°F)
Dewpoint: 22.2°C (72°F) [RH = 57%]
Pressure (altimeter): 30.04 inches Hg (1017.4 mb)
[Sea-level pressure: 1016.9 mb]
Winds: calm
Visibility: 10 or more miles (16+ km)
Ceiling: at least 12,000 feet AGL
Clouds: scattered clouds at 3200 feet AGL
Present Weather: automated observation with no human augmentation;
there may or may not be significant weather present at this time
KGIF 271653Z AUTO 00000KT 10SM SCT032 32/22 A3004 RMK AO2 SLP169 T03170222

Conditions at: KGIF observed 27 July 2017  15:53 UTC
Temperature: 31.1°C (88°F)
Dewpoint: 22.2°C (72°F) [RH = 59%]
Pressure (altimeter): 30.06 inches Hg (1018.0 mb)
[Sea-level pressure: 1017.4 mb]
Winds: calm
Visibility: 10 or more miles (16+ km)
Ceiling: at least 12,000 feet AGL
Clouds: few clouds at 3000 feet AGL
Present Weather: automated observation with no human augmentation;
there may or may not be significant weather present at this time
KGIF 271553Z AUTO 00000KT 10SM FEW030 31/22 A3006 RMK AO2 SLP174 T03110222

Conditions at: KGIF observed 27 July 2017  14:53 UTC
Temperature: 29.4°C (85°F)
Dewpoint: 22.2°C (72°F) [RH = 65%]
Pressure (altimeter): 30.05 inches Hg (1017.7 mb)
[Sea-level pressure: 1017.4 mb]
Winds: calm
Visibility: 10 or more miles (16+ km)
Ceiling: at least 12,000 feet AGL
Clouds: sky clear below 12,000 feet AGL
Present Weather: automated observation with no human augmentation;
there may or may not be significant weather present at this time
KGIF 271453Z AUTO 00000KT 10SM CLR 29/22 A3005 RMK AO2 SLP174 T02940222 58001

Conditions at: KGIF observed 27 July 2017  13:53 UTC
Temperature: 28.3°C (83°F)
Dewpoint: 22.8°C (73°F) [RH = 72%]
Pressure (altimeter): 30.06 inches Hg (1018.0 mb)
[Sea-level pressure: 1017.7 mb]
Winds: variable direction winds at 5 MPH (4 knots; 2.1 m/s)
Visibility: 10 or more miles (16+ km)
Ceiling: at least 12,000 feet AGL
Clouds: sky clear below 12,000 feet AGL
Present Weather: automated observation with no human augmentation;
there may or may not be significant weather present at this time
KGIF 271353Z AUTO VRB04KT 10SM CLR 28/23 A3006 RMK AO2 SLP177 T02830228

Conditions at: KGIF observed 27 July 2017  12:53 UTC
Temperature: 26.7°C (80°F)
Dewpoint: 22.2°C (72°F) [RH = 76%]
Pressure (altimeter): 30.06 inches Hg (1018.0 mb)
[Sea-level pressure: 1017.7 mb]
Winds: from the SSW (200 degrees) at 5 MPH (4 knots; 2.1 m/s)
Visibility: 10 or more miles (16+ km)
Ceiling: at least 12,000 feet AGL
Clouds: sky clear below 12,000 feet AGL
Present Weather: automated observation with no human augmentation;
there may or may not be significant weather present at this time
KGIF 271253Z AUTO 20004KT 10SM CLR 27/22 A3006 RMK AO2 SLP177 T02670222

Conditions at: KGIF observed 27 July 2017  11:53 UTC
Temperature: 25.6°C (78°F)
Dewpoint: 22.2°C (72°F) [RH = 82%]
Pressure (altimeter): 30.06 inches Hg (1018.0 mb)
[Sea-level pressure: 1017.5 mb]
Winds: from the S (190 degrees) at 3 MPH (3 knots; 1.6 m/s)
Visibility: 10 or more miles (16+ km)
Ceiling: at least 12,000 feet AGL
Clouds: sky clear below 12,000 feet AGL
Present Weather: automated observation with no human augmentation;
there may or may not be significant weather present at this time
KGIF 271153Z AUTO 19003KT 10SM CLR 26/22 A3006 RMK AO2 SLP175 T02560222 10267 20244 51007

Conditions at: KGIF observed 27 July 2017  10:53 UTC
Temperature: 24.4°C (76°F)
Dewpoint: 21.7°C (71°F) [RH = 85%]
Pressure (altimeter): 30.05 inches Hg (1017.7 mb)
[Sea-level pressure: 1017.3 mb]
Winds: calm
Visibility: 10 or more miles (16+ km)
Ceiling: 4800 feet AGL
Clouds: broken clouds at 4800 feet AGL
Present Weather: automated observation with no human augmentation;
there may or may not be significant weather present at this time
KGIF 271053Z AUTO 00000KT 10SM BKN048 24/22 A3005 RMK AO2 SLP173 T02440217

Conditions at: KGIF observed 27 July 2017  09:53 UTC
Temperature: 25.0°C (77°F)
Dewpoint: 21.1°C (70°F) [RH = 79%]
Pressure (altimeter): 30.04 inches Hg (1017.4 mb)
[Sea-level pressure: 1017.0 mb]
Winds: calm
Visibility: 10 or more miles (16+ km)
Ceiling: at least 12,000 feet AGL
Clouds: few clouds at 5500 feet AGL
Present Weather: automated observation with no human augmentation;
there may or may not be significant weather present at this time
KGIF 270953Z AUTO 00000KT 10SM FEW055 25/21 A3004 RMK AO2 SLP170 T02500211

Conditions at: KGIF observed 27 July 2017  08:53 UTC
Temperature: 25.0°C (77°F)
Dewpoint: 20.6°C (69°F) [RH = 77%]
Pressure (altimeter): 30.04 inches Hg (1017.4 mb)
[Sea-level pressure: 1016.8 mb]
Winds: from the S (190 degrees) at 5 MPH (4 knots; 2.1 m/s)
Visibility: 10 or more miles (16+ km)
Ceiling: at least 12,000 feet AGL
Clouds: sky clear below 12,000 feet AGL
Present Weather: automated observation with no human augmentation;
there may or may not be significant weather present at this time
KGIF 270853Z AUTO 19004KT 10SM CLR 25/21 A3004 RMK AO2 SLP168 T02500206 55002

Conditions at: KGIF observed 27 July 2017  07:53 UTC
Temperature: 25.0°C (77°F)
Dewpoint: 21.7°C (71°F) [RH = 82%]
Pressure (altimeter): 30.03 inches Hg (1017.0 mb)
[Sea-level pressure: 1016.7 mb]
Winds: calm
Visibility: 10 or more miles (16+ km)
Ceiling: at least 12,000 feet AGL
Clouds: sky clear below 12,000 feet AGL
Present Weather: automated observation with no human augmentation;
there may or may not be significant weather present at this time
KGIF 270753Z AUTO 00000KT 10SM CLR 25/22 A3003 RMK AO2 SLP167 T02500217

Conditions at: KGIF observed 27 July 2017  06:53 UTC
Temperature: 25.6°C (78°F)
Dewpoint: 22.2°C (72°F) [RH = 82%]
Pressure (altimeter): 30.03 inches Hg (1017.0 mb)
[Sea-level pressure: 1016.5 mb]
Winds: from the SSW (210 degrees) at 8 MPH (7 knots; 3.6 m/s)
Visibility: 10 or more miles (16+ km)
Ceiling: at least 12,000 feet AGL
Clouds: sky clear below 12,000 feet AGL
Present Weather: automated observation with no human augmentation;
there may or may not be significant weather present at this time
KGIF 270653Z AUTO 21007KT 10SM CLR 26/22 A3003 RMK AO2 SLP165 T02560222

Conditions at: KGIF observed 27 July 2017  05:53 UTC
Temperature: 26.7°C (80°F)
Dewpoint: 23.9°C (75°F) [RH = 85%]
Pressure (altimeter): 30.04 inches Hg (1017.4 mb)
[Sea-level pressure: 1017.0 mb]
Winds: from the S (180 degrees) at 7 MPH (6 knots; 3.1 m/s)
Visibility: 10 or more miles (16+ km)
Ceiling: at least 12,000 feet AGL
Clouds: few clouds at 9500 feet AGL
Present Weather: automated observation with no human augmentation;
there may or may not be significant weather present at this time
KGIF 270553Z AUTO 18006KT 10SM FEW095 27/24 A3004 RMK AO2 SLP170 T02670239 10317 20261 58008

Conditions at: KGIF observed 27 July 2017  05:15 UTC
Temperature: 26.1°C (79°F)
Dewpoint: 23.9°C (75°F) [RH = 88%]
Pressure (altimeter): 30.05 inches Hg (1017.7 mb)
Winds: from the S (170 degrees) at 7 MPH (6 knots; 3.1 m/s)
Visibility: 10 or more miles (16+ km)
Ceiling: 7500 feet AGL
Clouds: few clouds at 4900 feet AGL
broken clouds at 7500 feet AGL
broken clouds at 9000 feet AGL
Present Weather: automated observation with no human augmentation;
there may or may not be significant weather present at this time
KGIF 270515Z AUTO 17006KT 10SM FEW049 BKN075 BKN090 26/24 A3005 RMK AO2 LTG DSNT SE AND S T02610239

Conditions at: KGIF observed 27 July 2017  05:00 UTC
Temperature: 26.1°C (79°F)
Dewpoint: 23.9°C (75°F) [RH = 88%]
Pressure (altimeter): 30.06 inches Hg (1018.0 mb)
Winds: from the SE (140 degrees) at 7 MPH (6 knots; 3.1 m/s)
Visibility: 10 or more miles (16+ km)
Ceiling: 7000 feet AGL
Clouds: scattered clouds at 4900 feet AGL
broken clouds at 7000 feet AGL
broken clouds at 9000 feet AGL
Present Weather: VCTS  (thunderstorm in vicinity)
KGIF 270500Z AUTO 14006KT 10SM VCTS SCT049 BKN070 BKN090 26/24 A3006 RMK AO2 LTG DSNT S T02610239

Conditions at: KGIF observed 27 July 2017  04:53 UTC
Temperature: 26.1°C (79°F)
Dewpoint: 23.9°C (75°F) [RH = 88%]
Pressure (altimeter): 30.06 inches Hg (1018.0 mb)
[Sea-level pressure: 1017.6 mb]
Winds: from the SE (140 degrees) at 7 MPH (6 knots; 3.1 m/s)
Visibility: 10 or more miles (16+ km)
Ceiling: 4900 feet AGL
Clouds: broken clouds at 4900 feet AGL
broken clouds at 6000 feet AGL
broken clouds at 7500 feet AGL
Present Weather: automated observation with no human augmentation;
there may or may not be significant weather present at this time
KGIF 270453Z AUTO 14006KT 10SM BKN049 BKN060 BKN075 26/24 A3006 RMK AO2 LTG DSNT S TSE09 SLP176 T02610239 403560256

Conditions at: KGIF observed 27 July 2017  04:40 UTC
Temperature: 26.7°C (80°F)
Dewpoint: 22.2°C (72°F) [RH = 76%]
Pressure (altimeter): 30.06 inches Hg (1018.0 mb)
Winds: from the SE (140 degrees) at 12 MPH (10 knots; 5.2 m/s)
Visibility: 10 or more miles (16+ km)
Ceiling: 7000 feet AGL
Clouds: few clouds at 4300 feet AGL
scattered clouds at 5000 feet AGL
broken clouds at 7000 feet AGL
Present Weather: VCTS  (thunderstorm in vicinity)
KGIF 270440Z AUTO 14010KT 10SM VCTS FEW043 SCT050 BKN070 27/22 A3006 RMK AO2 LTG DSNT SE AND S TSE09 T02670222

Conditions at: KGIF observed 27 July 2017  04:11 UTC
Temperature: 26.7°C (80°F)
Dewpoint: 23.3°C (74°F) [RH = 82%]
Pressure (altimeter): 30.07 inches Hg (1018.4 mb)
Winds: from the S (170 degrees) at 17 MPH (15 knots; 7.8 m/s)
Visibility: 10 or more miles (16+ km)
Ceiling: 4100 feet AGL
Clouds: few clouds at 3400 feet AGL
broken clouds at 4100 feet AGL
overcast cloud deck at 7000 feet AGL
Present Weather: automated observation with no human augmentation;
there may or may not be significant weather present at this time
KGIF 270411Z AUTO 17015KT 10SM FEW034 BKN041 OVC070 27/23 A3007 RMK AO2 TSE09 T02670233

Conditions at: KGIF observed 27 July 2017  03:53 UTC
Temperature: 28.3°C (83°F)
Dewpoint: 22.2°C (72°F) [RH = 70%]
Pressure (altimeter): 30.07 inches Hg (1018.4 mb)
[Sea-level pressure: 1017.9 mb]
Winds: from the SE (130 degrees) at 7 MPH (6 knots; 3.1 m/s)
Visibility: 10 or more miles (16+ km)
Ceiling: 4500 feet AGL
Clouds: broken clouds at 4500 feet AGL
broken clouds at 6000 feet AGL
broken clouds at 7500 feet AGL
Present Weather: TS  (thunderstorm)
KGIF 270353Z AUTO 13006KT 10SM TS BKN045 BKN060 BKN075 28/22 A3007 RMK AO2 LTG DSNT ALQDS TSB19 SLP179 T02830222

Conditions at: KGIF observed 27 July 2017  03:25 UTC
Temperature: 28.3°C (83°F)
Dewpoint: 22.2°C (72°F) [RH = 70%]
Pressure (altimeter): 30.06 inches Hg (1018.0 mb)
Winds: from the E (100 degrees) at 6 MPH (5 knots; 2.6 m/s)
Visibility: 10 or more miles (16+ km)
Ceiling: at least 12,000 feet AGL
Clouds: scattered clouds at 6000 feet AGL
Present Weather: TS  (thunderstorm)
KGIF 270325Z AUTO 10005KT 10SM TS SCT060 28/22 A3006 RMK AO2 LTG DSNT ALQDS TSB19 T02830222

Conditions at: KGIF observed 27 July 2017  02:53 UTC
Temperature: 28.3°C (83°F)
Dewpoint: 24.4°C (76°F) [RH = 79%]
Pressure (altimeter): 30.07 inches Hg (1018.4 mb)
[Sea-level pressure: 1017.8 mb]
Winds: calm
Visibility: 10 or more miles (16+ km)
Ceiling: 5500 feet AGL
Clouds: broken clouds at 5500 feet AGL
Present Weather: VCTS  (thunderstorm in vicinity)
KGIF 270253Z AUTO 00000KT 10SM VCTS BKN055 28/24 A3007 RMK AO2 LTG DSNT N AND NE SLP178 T02830244 53014

Conditions at: KGIF observed 27 July 2017  02:44 UTC
Temperature: 28.3°C (83°F)
Dewpoint: 23.9°C (75°F) [RH = 77%]
Pressure (altimeter): 30.07 inches Hg (1018.4 mb)
Winds: calm
Visibility: 10 or more miles (16+ km)
Ceiling: 6000 feet AGL
Clouds: scattered clouds at 4700 feet AGL
broken clouds at 6000 feet AGL
Present Weather: VCTS  (thunderstorm in vicinity)
KGIF 270244Z AUTO 00000KT 10SM VCTS SCT047 BKN060 28/24 A3007 RMK AO2 LTG DSNT N AND NE T02830239

Conditions at: KGIF observed 27 July 2017  01:53 UTC
Temperature: 28.9°C (84°F)
Dewpoint: 23.3°C (74°F) [RH = 72%]
Pressure (altimeter): 30.05 inches Hg (1017.7 mb)
[Sea-level pressure: 1017.1 mb]
Winds: from the N (360 degrees) at 7 MPH (6 knots; 3.1 m/s)
Visibility: 10 or more miles (16+ km)
Ceiling: 7000 feet AGL
Clouds: scattered clouds at 4600 feet AGL
overcast cloud deck at 7000 feet AGL
Present Weather: automated observation with no human augmentation;
there may or may not be significant weather present at this time
KGIF 270153Z AUTO 36006KT 10SM SCT046 OVC070 29/23 A3005 RMK AO2 SLP171 T02890233

Conditions at: KGIF observed 27 July 2017  01:39 UTC
Temperature: 29.4°C (85°F)
Dewpoint: 23.3°C (74°F) [RH = 70%]
Pressure (altimeter): 30.04 inches Hg (1017.4 mb)
Winds: from the NE (50 degrees) at 5 MPH (4 knots; 2.1 m/s)
Visibility: 10 or more miles (16+ km)
Ceiling: 5000 feet AGL
Clouds: scattered clouds at 4300 feet AGL
broken clouds at 5000 feet AGL
broken clouds at 6500 feet AGL
Present Weather: automated observation with no human augmentation;
there may or may not be significant weather present at this time
KGIF 270139Z AUTO 05004KT 10SM SCT043 BKN050 BKN065 29/23 A3004 RMK AO2 T02940233

Conditions at: KGIF observed 27 July 2017  01:13 UTC
Temperature: 30.0°C (86°F)
Dewpoint: 23.3°C (74°F) [RH = 67%]
Pressure (altimeter): 30.04 inches Hg (1017.4 mb)
Winds: from the NW (310 degrees) at 5 MPH (4 knots; 2.1 m/s)
Visibility: 10 or more miles (16+ km)
Ceiling: 5000 feet AGL
Clouds: broken clouds at 5000 feet AGL
Present Weather: VCTS  (thunderstorm in vicinity)
KGIF 270113Z AUTO 31004KT 10SM VCTS BKN050 30/23 A3004 RMK AO2 T03000233

Conditions at: KGIF observed 27 July 2017  00:53 UTC
Temperature: 30.0°C (86°F)
Dewpoint: 23.3°C (74°F) [RH = 67%]
Pressure (altimeter): 30.03 inches Hg (1017.0 mb)
[Sea-level pressure: 1016.6 mb]
Winds: from the E (90 degrees) at 8 MPH (7 knots; 3.6 m/s)
Visibility: 10 or more miles (16+ km)
Ceiling: 5000 feet AGL
Clouds: broken clouds at 5000 feet AGL
broken clouds at 7500 feet AGL
Present Weather: automated observation with no human augmentation;
there may or may not be significant weather present at this time
KGIF 270053Z AUTO 09007KT 10SM BKN050 BKN075 30/23 A3003 RMK AO2 LTG DSNT S SLP166 T03000233

Conditions at: KGIF observed 26 July 2017  23:53 UTC
Temperature: 31.7°C (89°F)
Dewpoint: 21.7°C (71°F) [RH = 56%]
Pressure (altimeter): 30.03 inches Hg (1017.0 mb)
[Sea-level pressure: 1016.4 mb]
Winds: from the ESE (120 degrees) at 6 MPH (5 knots; 2.6 m/s)
Visibility: 10 or more miles (16+ km)
Ceiling: at least 12,000 feet AGL
Clouds: sky clear below 12,000 feet AGL
Present Weather: automated observation with no human augmentation;
there may or may not be significant weather present at this time
KGIF 262353Z AUTO 12005KT 10SM CLR 32/22 A3003 RMK AO2 LTG DSNT E AND S SLP164 T03170217 10356 20317 53001

Conditions at: KGIF observed 26 July 2017  22:53 UTC
Temperature: 31.7°C (89°F)
Dewpoint: 21.7°C (71°F) [RH = 56%]
Pressure (altimeter): 30.01 inches Hg (1016.3 mb)
[Sea-level pressure: 1015.7 mb]
Winds: from the S (170 degrees) at 8 MPH (7 knots; 3.6 m/s)
Visibility: 10 or more miles (16+ km)
Ceiling: 6000 feet AGL
Clouds: broken clouds at 6000 feet AGL
Present Weather: automated observation with no human augmentation;
there may or may not be significant weather present at this time
KGIF 262253Z AUTO 17007KT 10SM BKN060 32/22 A3001 RMK AO2 LTG DSNT S AND SW SLP157 T03170217

Conditions at: KGIF observed 26 July 2017  21:53 UTC
Temperature: 34.4°C (94°F)
Dewpoint: 21.1°C (70°F) [RH = 46%]
Pressure (altimeter): 30.02 inches Hg (1016.7 mb)
[Sea-level pressure: 1016.1 mb]
Winds: from the NNW (330 degrees) at 6 MPH (5 knots; 2.6 m/s)
Visibility: 10 or more miles (16+ km)
Ceiling: at least 12,000 feet AGL
Clouds: few clouds at 6000 feet AGL
Present Weather: automated observation with no human augmentation;
there may or may not be significant weather present at this time
KGIF 262153Z AUTO 33005KT 10SM FEW060 34/21 A3002 RMK AO2 LTG DSNT NE-S SLP161 T03440211

Conditions at: KGIF observed 26 July 2017  20:53 UTC
Temperature: 35.0°C (95°F)
Dewpoint: 21.1°C (70°F) [RH = 45%]
Pressure (altimeter): 30.02 inches Hg (1016.7 mb)
[Sea-level pressure: 1016.3 mb]
Winds: from the NW (310 degrees) at 8 MPH (7 knots; 3.6 m/s)
Visibility: 10 or more miles (16+ km)
Ceiling: at least 12,000 feet AGL
Clouds: few clouds at 5500 feet AGL
Present Weather: automated observation with no human augmentation;
there may or may not be significant weather present at this time
KGIF 262053Z AUTO 31007KT 10SM FEW055 35/21 A3002 RMK AO2 LTG DSNT S SLP163 T03500211 58024

Conditions at: KGIF observed 26 July 2017  19:53 UTC
Temperature: 34.4°C (94°F)
Dewpoint: 21.1°C (70°F) [RH = 46%]
Pressure (altimeter): 30.05 inches Hg (1017.7 mb)
[Sea-level pressure: 1017.1 mb]
Winds: from the NW (320 degrees) at 6 MPH (5 knots; 2.6 m/s)
Visibility: 10 or more miles (16+ km)
Ceiling: at least 12,000 feet AGL
Clouds: scattered clouds at 5500 feet AGL
Present Weather: automated observation with no human augmentation;
there may or may not be significant weather present at this time
KGIF 261953Z AUTO 32005KT 10SM SCT055 34/21 A3005 RMK AO2 LTG DSNT SE SLP171 T03440211

Conditions at: KGIF observed 26 July 2017  18:53 UTC
Temperature: 33.9°C (93°F)
Dewpoint: 21.7°C (71°F) [RH = 49%]
Pressure (altimeter): 30.07 inches Hg (1018.4 mb)
[Sea-level pressure: 1018.0 mb]
Winds: variable direction winds at 3 MPH (3 knots; 1.6 m/s)
Visibility: 10 or more miles (16+ km)
Ceiling: 4700 feet AGL
Clouds: broken clouds at 4700 feet AGL
Present Weather: automated observation with no human augmentation;
there may or may not be significant weather present at this time
KGIF 261853Z AUTO VRB03KT 10SM BKN047 34/22 A3007 RMK AO2 SLP180 T03390217